Shenango, Pennsylvania
Current Conditions -  °F | °C
As of 7:53 PM on Monday 22 Dec 2014 (Local Time) from KGKJ Reporting Station
Haze Haze  
Wind Chill: 28°   Ceiling: Unl
Heat Index: 34°   Visibility: 6mi
Dew Point: 26°   Wind: 7mph
Humidity: 73%   Direction: NA
Pressure: 29.96"   Gusts: NA
Location:  41.4051°N, 80.3648°W
Report Text: KGKJ 230053Z AUTO VRB06KT 6SM HZ CLR 01/M03 A2996 RMK AO2 SLP161 T00111033 TSNO
Loading
Personal Weather Stations






























Interactive Weather Map New forecast layout! Learn more

10-Day Weather Forecast

Advertisements
Track Severe Weather on mobile